createdAt,value
2022-09-23T00:04:00.883Z,7.37
2022-09-23T00:34:04.895Z,11.23
2022-09-23T01:04:08.034Z,9.93
2022-09-23T01:34:11.593Z,5.37
2022-09-23T02:04:15.415Z,6.49
2022-09-23T02:34:19.116Z,10.29
2022-09-23T03:04:22.449Z,11.42
2022-09-23T03:34:26.391Z,9.11
2022-09-23T04:04:29.364Z,7.56
2022-09-23T04:34:33.124Z,11.22
2022-09-23T05:04:36.072Z,10.84
2022-09-23T05:34:38.960Z,8.59
2022-09-23T06:04:42.200Z,12.64
2022-09-23T06:34:51.523Z,14.40
2022-09-23T07:04:55.336Z,15.84
2022-09-23T07:34:58.933Z,13.56
2022-09-23T08:05:02.119Z,17.80
2022-09-23T08:35:05.266Z,15.19
2022-09-23T09:05:08.578Z,18.32
2022-09-23T09:35:12.224Z,16.81
2022-09-23T10:05:23.838Z,19.08
2022-09-23T10:35:28.621Z,16.91
2022-09-23T11:05:31.370Z,16.23
2022-09-23T11:35:35.925Z,17.67
2022-09-23T12:05:38.997Z,17.30
2022-09-23T12:35:42.578Z,16.66
2022-09-23T13:05:46.046Z,16.30
2022-09-23T13:35:49.517Z,16.56
2022-09-23T14:05:53.131Z,16.81
2022-09-23T14:35:56.391Z,16.47
2022-09-23T15:05:59.163Z,15.88
2022-09-23T15:36:03.663Z,15.19
2022-09-23T16:06:06.624Z,14.78
2022-09-23T16:36:10.701Z,14.12
2022-09-23T17:06:14.202Z,12.88
2022-09-23T17:36:17.962Z,13.14
2022-09-23T18:06:21.363Z,13.39
2022-09-23T18:36:24.589Z,14.09
2022-09-23T19:06:27.954Z,13.50
2022-09-23T19:36:31.568Z,12.88
2022-09-23T20:06:34.503Z,14.52
2022-09-23T20:36:38.201Z,15.78
2022-09-23T21:06:40.942Z,16.07
2022-09-23T21:36:44.839Z,13.01
2022-09-23T22:06:48.812Z,15.25
2022-09-23T22:36:52.425Z,15.22
2022-09-23T23:06:56.891Z,12.81
2022-09-23T23:37:00.176Z,16.28
